sensor_id;sensor_type;location;lat;lon;timestamp;pressure;altitude;pressure_sealevel;temperature;humidity
3832;BME280;12460;42.662;23.288;2023-04-27T00:03:17;94249.66;;;11.06;42.64
3832;BME280;12460;42.662;23.288;2023-04-27T00:18:21;94252.34;;;10.87;42.55
3832;BME280;12460;42.662;23.288;2023-04-27T00:33:25;94242.59;;;10.71;42.58
3832;BME280;12460;42.662;23.288;2023-04-27T00:48:29;94245.63;;;10.48;42.99
3832;BME280;12460;42.662;23.288;2023-04-27T01:03:33;94259.75;;;10.23;43.28
3832;BME280;12460;42.662;23.288;2023-04-27T01:18:38;94260.41;;;9.90;43.70
3832;BME280;12460;42.662;23.288;2023-04-27T01:33:47;94276.06;;;9.75;44.00
3832;BME280;12460;42.662;23.288;2023-04-27T01:48:51;94283.25;;;9.61;44.37
3832;BME280;12460;42.662;23.288;2023-04-27T02:03:56;94276.59;;;9.49;44.18
3832;BME280;12460;42.662;23.288;2023-04-27T02:19:01;94279.00;;;9.53;44.34
3832;BME280;12460;42.662;23.288;2023-04-27T02:34:08;94287.03;;;9.56;43.81
3832;BME280;12460;42.662;23.288;2023-04-27T02:49:13;94292.25;;;9.60;43.72
3832;BME280;12460;42.662;23.288;2023-04-27T03:04:18;94289.44;;;9.60;43.41
3832;BME280;12460;42.662;23.288;2023-04-27T03:19:23;94316.03;;;9.59;43.29
3832;BME280;12460;42.662;23.288;2023-04-27T03:34:43;94322.41;;;9.59;43.27
3832;BME280;12460;42.662;23.288;2023-04-27T03:49:48;94327.00;;;9.64;42.93
3832;BME280;12460;42.662;23.288;2023-04-27T04:04:52;94346.97;;;9.76;42.18
3832;BME280;12460;42.662;23.288;2023-04-27T04:19:57;94373.72;;;10.09;41.30
3832;BME280;12460;42.662;23.288;2023-04-27T04:35:04;94378.31;;;10.71;40.24
3832;BME280;12460;42.662;23.288;2023-04-27T04:50:09;94393.69;;;11.90;37.89
3832;BME280;12460;42.662;23.288;2023-04-27T05:05:15;94396.84;;;13.89;34.73
3832;BME280;12460;42.662;23.288;2023-04-27T05:20:19;94422.59;;;13.64;35.22
3832;BME280;12460;42.662;23.288;2023-04-27T05:35:25;94419.78;;;12.90;36.79
3832;BME280;12460;42.662;23.288;2023-04-27T05:50:29;94439.72;;;12.29;37.65
3832;BME280;12460;42.662;23.288;2023-04-27T06:05:35;94444.41;;;12.17;38.15
3832;BME280;12460;42.662;23.288;2023-04-27T06:20:40;94442.50;;;12.46;37.61
3832;BME280;12460;42.662;23.288;2023-04-27T06:35:46;94436.09;;;13.18;36.74
3832;BME280;12460;42.662;23.288;2023-04-27T06:50:50;94428.41;;;14.54;34.87
3832;BME280;12460;42.662;23.288;2023-04-27T07:06:02;94411.91;;;14.82;33.74
3832;BME280;12460;42.662;23.288;2023-04-27T07:21:07;94420.97;;;15.84;32.52
3832;BME280;12460;42.662;23.288;2023-04-27T07:36:12;94412.47;;;17.07;30.39
3832;BME280;12460;42.662;23.288;2023-04-27T07:51:16;94406.91;;;18.18;28.58
3832;BME280;12460;42.662;23.288;2023-04-27T08:06:22;94412.28;;;21.01;25.43
3832;BME280;12460;42.662;23.288;2023-04-27T08:21:26;94400.28;;;19.18;26.79
3832;BME280;12460;42.662;23.288;2023-04-27T08:36:31;94404.97;;;19.66;26.30
3832;BME280;12460;42.662;23.288;2023-04-27T08:51:38;94408.75;;;20.27;26.14
3832;BME280;12460;42.662;23.288;2023-04-27T09:06:43;94408.75;;;21.65;24.18
3832;BME280;12460;42.662;23.288;2023-04-27T09:21:48;94398.28;;;21.87;23.14
3832;BME280;12460;42.662;23.288;2023-04-27T09:36:53;94374.69;;;22.94;21.99
3832;BME280;12460;42.662;23.288;2023-04-27T09:51:58;94347.34;;;24.33;21.58
3832;BME280;12460;42.662;23.288;2023-04-27T10:07:06;94355.06;;;25.19;19.78
3832;BME280;12460;42.662;23.288;2023-04-27T10:22:11;94347.88;;;24.27;20.25
3832;BME280;12460;42.662;23.288;2023-04-27T10:37:17;94345.59;;;25.92;19.67
3832;BME280;12460;42.662;23.288;2023-04-27T10:52:28;94342.53;;;24.85;20.00
3832;BME280;12460;42.662;23.288;2023-04-27T11:07:33;94329.13;;;23.83;20.14
3832;BME280;12460;42.662;23.288;2023-04-27T11:22:45;94340.38;;;21.73;22.12
3832;BME280;12460;42.662;23.288;2023-04-27T11:37:56;94355.69;;;21.46;22.63
3832;BME280;12460;42.662;23.288;2023-04-27T11:53:02;94349.09;;;22.46;22.26
3832;BME280;12460;42.662;23.288;2023-04-27T12:08:06;94361.09;;;20.92;23.03
3832;BME280;12460;42.662;23.288;2023-04-27T12:23:14;94362.22;;;20.10;23.90
3832;BME280;12460;42.662;23.288;2023-04-27T12:38:19;94373.09;;;20.28;23.96
3832;BME280;12460;42.662;23.288;2023-04-27T12:53:23;94372.09;;;18.97;25.19
3832;BME280;12460;42.662;23.288;2023-04-27T13:08:28;94375.56;;;18.81;25.82
3832;BME280;12460;42.662;23.288;2023-04-27T13:23:34;94368.66;;;18.34;25.91
3832;BME280;12460;42.662;23.288;2023-04-27T13:38:39;94352.28;;;18.46;25.85
3832;BME280;12460;42.662;23.288;2023-04-27T13:53:45;94369.53;;;18.11;26.14
3832;BME280;12460;42.662;23.288;2023-04-27T14:08:50;94379.91;;;17.93;26.51
3832;BME280;12460;42.662;23.288;2023-04-27T14:23:57;94381.91;;;17.54;26.99
3832;BME280;12460;42.662;23.288;2023-04-27T14:39:02;94400.00;;;17.12;26.74
3832;BME280;12460;42.662;23.288;2023-04-27T14:54:09;94423.59;;;17.03;26.96
3832;BME280;12460;42.662;23.288;2023-04-27T15:09:13;94440.72;;;16.59;27.95
3832;BME280;12460;42.662;23.288;2023-04-27T15:24:17;94445.63;;;16.14;28.21
3832;BME280;12460;42.662;23.288;2023-04-27T15:39:22;94453.56;;;15.52;28.99
3832;BME280;12460;42.662;23.288;2023-04-27T15:54:28;94465.41;;;15.39;29.36
3832;BME280;12460;42.662;23.288;2023-04-27T16:09:33;94460.25;;;15.05;29.89
3832;BME280;12460;42.662;23.288;2023-04-27T16:24:38;94494.28;;;14.86;30.41
3832;BME280;12460;42.662;23.288;2023-04-27T16:39:43;94521.34;;;14.48;32.30
3832;BME280;12460;42.662;23.288;2023-04-27T16:54:47;94542.22;;;14.05;32.53
3832;BME280;12460;42.662;23.288;2023-04-27T17:09:52;94546.63;;;13.70;33.79
3832;BME280;12460;42.662;23.288;2023-04-27T17:24:57;94563.38;;;13.49;34.54
3832;BME280;12460;42.662;23.288;2023-04-27T17:40:03;94586.25;;;13.34;35.39
3832;BME280;12460;42.662;23.288;2023-04-27T17:55:11;94602.34;;;13.14;36.00
3832;BME280;12460;42.662;23.288;2023-04-27T18:10:15;94631.69;;;13.01;35.93
3832;BME280;12460;42.662;23.288;2023-04-27T18:25:21;94649.03;;;12.98;36.84
3832;BME280;12460;42.662;23.288;2023-04-27T18:40:26;94673.81;;;12.90;36.55
3832;BME280;12460;42.662;23.288;2023-04-27T18:55:30;94690.97;;;12.84;36.98
3832;BME280;12460;42.662;23.288;2023-04-27T19:10:35;94700.63;;;12.64;37.43
3832;BME280;12460;42.662;23.288;2023-04-27T19:25:40;94702.88;;;12.48;37.87
3832;BME280;12460;42.662;23.288;2023-04-27T19:40:46;94716.81;;;12.29;37.94
3832;BME280;12460;42.662;23.288;2023-04-27T19:55:51;94719.69;;;12.22;38.42
3832;BME280;12460;42.662;23.288;2023-04-27T20:10:56;94725.31;;;12.05;38.51
3832;BME280;12460;42.662;23.288;2023-04-27T20:26:02;94724.50;;;11.87;38.60
3832;BME280;12460;42.662;23.288;2023-04-27T20:41:07;94735.31;;;11.73;38.92
3832;BME280;12460;42.662;23.288;2023-04-27T20:56:13;94746.88;;;11.53;39.43
3832;BME280;12460;42.662;23.288;2023-04-27T21:11:17;94746.75;;;11.43;39.47
3832;BME280;12460;42.662;23.288;2023-04-27T21:26:22;94740.50;;;11.20;39.01
3832;BME280;12460;42.662;23.288;2023-04-27T21:41:27;94748.09;;;11.02;39.14
3832;BME280;12460;42.662;23.288;2023-04-27T21:56:31;94737.91;;;10.67;39.71
3832;BME280;12460;42.662;23.288;2023-04-27T22:11:36;94755.25;;;10.33;39.60
3832;BME280;12460;42.662;23.288;2023-04-27T22:26:41;94755.63;;;10.30;39.51
3832;BME280;12460;42.662;23.288;2023-04-27T22:41:47;94740.28;;;10.08;40.05
3832;BME280;12460;42.662;23.288;2023-04-27T22:56:51;94737.66;;;10.10;39.50
3832;BME280;12460;42.662;23.288;2023-04-27T23:11:56;94740.06;;;10.06;39.66
3832;BME280;12460;42.662;23.288;2023-04-27T23:27:02;94734.47;;;9.91;39.63
3832;BME280;12460;42.662;23.288;2023-04-27T23:42:07;94747.38;;;9.71;40.03
3832;BME280;12460;42.662;23.288;2023-04-27T23:57:13;94752.44;;;9.58;40.32
